Time;durP1;ratioP1;P1;durP2;ratioP2;P2;SDS_P1;SDS_P2;PMS_P1;PMS_P2;Temp;Humidity;BMP_temperature;BMP_pressure;BME280_temperature;BME280_humidity;BME280_pressure;Samples;Min_cycle;Max_cycle;Signal;HPM_P1;HPM_P2
2022/06/06 00:01:24;;;;;;;59.45;26.05;;;;;;;;;;5157505;27;20555;-74
2022/06/06 00:03:51;;;;;;;57.67;23.73;;;;;;;;;;5161545;27;20183;-74
2022/06/06 00:06:19;;;;;;;54.25;24.13;;;;;;;;;;5151293;27;20089;-75
2022/06/06 00:08:46;;;;;;;49.92;21.02;;;;;;;;;;5149032;27;20196;-75
2022/06/06 00:11:13;;;;;;;48.30;21.50;;;;;;;;;;5165690;27;20054;-77
2022/06/06 00:13:41;;;;;;;48.40;21.00;;;;;;;;;;5156996;27;20047;-75
2022/06/06 00:16:09;;;;;;;51.72;20.75;;;;;;;;;;5139360;27;20055;-73
2022/06/06 00:18:35;;;;;;;51.60;20.73;;;;;;;;;;5152695;27;20058;-74
2022/06/06 00:21:03;;;;;;;50.75;20.88;;;;;;;;;;5136050;27;20065;-75
2022/06/06 00:23:29;;;;;;;48.50;19.08;;;;;;;;;;5151650;27;20135;-74
2022/06/06 00:25:57;;;;;;;45.72;18.60;;;;;;;;;;5163725;27;20051;-75
2022/06/06 00:28:23;;;;;;;44.45;19.83;;;;;;;;;;5145345;27;20047;-74
2022/06/06 00:30:55;;;;;;;39.00;18.88;;;;;;;;;;5145338;27;21110;-75
2022/06/06 00:36:07;;;;;;;40.70;17.65;;;;;;;;;;5145539;27;20577;-75
2022/06/06 00:38:33;;;;;;;46.05;19.00;;;;;;;;;;5146374;27;20100;-75
2022/06/06 00:41:00;;;;;;;40.05;18.17;;;;;;;;;;5153930;27;20057;-73
2022/06/06 00:43:26;;;;;;;41.22;19.55;;;;;;;;;;5129556;27;20051;-73
2022/06/06 00:45:56;;;;;;;41.88;19.35;;;;;;;;;;5127579;27;20135;-74
2022/06/06 00:48:25;;;;;;;45.78;19.88;;;;;;;;;;5150830;27;20675;-76
2022/06/06 00:51:00;;;;;;;51.50;21.30;;;;;;;;;;5149787;27;20134;-75
2022/06/06 00:53:30;;;;;;;44.70;19.73;;;;;;;;;;5138240;27;20916;-74
2022/06/06 00:55:59;;;;;;;48.43;20.37;;;;;;;;;;5130897;27;20057;-73
2022/06/06 00:58:29;;;;;;;47.33;20.67;;;;;;;;;;5148856;27;20297;-75
2022/06/06 01:00:55;;;;;;;45.15;18.55;;;;;;;;;;5159418;27;20107;-74
2022/06/06 01:03:24;;;;;;;46.75;18.30;;;;;;;;;;5153996;27;20051;-75
2022/06/06 01:05:51;;;;;;;41.97;18.38;;;;;;;;;;5151966;27;20077;-75
2022/06/06 01:08:20;;;;;;;46.75;18.83;;;;;;;;;;5145177;27;20047;-73
2022/06/06 01:10:46;;;;;;;41.90;17.45;;;;;;;;;;5154875;27;20080;-75
2022/06/06 01:13:14;;;;;;;43.40;18.08;;;;;;;;;;5151940;27;21487;-76
2022/06/06 01:15:43;;;;;;;45.80;17.83;;;;;;;;;;5144903;27;20643;-74
2022/06/06 01:18:26;;;;;;;44.15;17.52;;;;;;;;;;5123552;27;20054;-75
2022/06/06 01:21:08;;;;;;;46.40;17.73;;;;;;;;;;5131104;27;20078;-75
2022/06/06 01:23:37;;;;;;;41.13;16.75;;;;;;;;;;5134005;27;20050;-73
2022/06/06 01:26:04;;;;;;;41.08;18.00;;;;;;;;;;5141857;27;20142;-74
2022/06/06 01:28:43;;;;;;;43.47;19.10;;;;;;;;;;5152320;27;20059;-75
2022/06/06 01:31:11;;;;;;;42.10;18.60;;;;;;;;;;5125189;27;20051;-75
2022/06/06 01:33:55;;;;;;;41.83;18.55;;;;;;;;;;5128480;27;20055;-74
2022/06/06 01:36:23;;;;;;;42.60;19.05;;;;;;;;;;5143019;27;20047;-75
2022/06/06 01:38:49;;;;;;;45.53;18.48;;;;;;;;;;5147463;27;20053;-75
2022/06/06 01:41:21;;;;;;;44.38;17.35;;;;;;;;;;5130560;27;20076;-75
2022/06/06 01:43:53;;;;;;;41.75;16.92;;;;;;;;;;5151718;27;20050;-74
2022/06/06 01:46:26;;;;;;;39.45;15.27;;;;;;;;;;5144867;27;20955;-74
2022/06/06 01:48:53;;;;;;;37.70;14.77;;;;;;;;;;5153422;27;20058;-75
2022/06/06 01:51:21;;;;;;;37.92;14.85;;;;;;;;;;5152553;27;20053;-75
2022/06/06 01:53:47;;;;;;;44.40;15.95;;;;;;;;;;5150402;27;20531;-76
2022/06/06 01:56:16;;;;;;;44.53;16.55;;;;;;;;;;5151815;27;20063;-74
2022/06/06 01:58:42;;;;;;;34.17;13.90;;;;;;;;;;5137745;27;20051;-75
2022/06/06 02:01:10;;;;;;;34.85;15.07;;;;;;;;;;5159169;27;20055;-75
2022/06/06 02:03:36;;;;;;;37.65;14.90;;;;;;;;;;5149334;27;20047;-74
2022/06/06 02:06:06;;;;;;;36.70;14.35;;;;;;;;;;5164222;27;20141;-74
2022/06/06 02:08:32;;;;;;;34.65;14.45;;;;;;;;;;5143349;27;20085;-76
2022/06/06 02:10:59;;;;;;;31.98;13.55;;;;;;;;;;5169003;27;20051;-74
2022/06/06 02:13:25;;;;;;;35.75;14.30;;;;;;;;;;5160922;27;20054;-74
2022/06/06 02:15:52;;;;;;;32.70;13.18;;;;;;;;;;5152368;27;20048;-75
2022/06/06 02:18:18;;;;;;;30.67;13.48;;;;;;;;;;5147072;27;20055;-75
2022/06/06 02:20:45;;;;;;;34.72;13.65;;;;;;;;;;5153411;27;20054;-75
2022/06/06 02:23:12;;;;;;;28.50;13.38;;;;;;;;;;5133462;27;20057;-75
2022/06/06 02:25:39;;;;;;;32.35;12.88;;;;;;;;;;5140378;27;20120;-76
2022/06/06 02:28:05;;;;;;;30.35;12.93;;;;;;;;;;5145532;27;20145;-76
2022/06/06 02:30:33;;;;;;;35.97;13.80;;;;;;;;;;5153071;27;20535;-75
2022/06/06 02:33:00;;;;;;;33.33;12.85;;;;;;;;;;5164974;27;20050;-74
2022/06/06 02:35:28;;;;;;;35.17;14.98;;;;;;;;;;5151353;27;20134;-75
2022/06/06 02:37:56;;;;;;;38.05;14.30;;;;;;;;;;5139657;27;20057;-75
2022/06/06 02:40:23;;;;;;;34.80;14.35;;;;;;;;;;5132785;27;20054;-75
2022/06/06 02:42:50;;;;;;;40.17;15.23;;;;;;;;;;5154356;27;20051;-75
2022/06/06 02:45:17;;;;;;;40.70;15.25;;;;;;;;;;5139186;27;20046;-75
2022/06/06 02:47:46;;;;;;;45.83;17.13;;;;;;;;;;5130142;27;20055;-75
2022/06/06 02:50:15;;;;;;;39.47;17.10;;;;;;;;;;5127792;27;20713;-74
2022/06/06 02:52:43;;;;;;;46.60;18.50;;;;;;;;;;5161748;27;20061;-74
2022/06/06 02:55:10;;;;;;;52.53;18.58;;;;;;;;;;5154322;27;20066;-75
2022/06/06 02:57:40;;;;;;;45.90;18.95;;;;;;;;;;5156126;27;20055;-75
2022/06/06 03:00:08;;;;;;;44.60;18.45;;;;;;;;;;5147804;27;20061;-75
2022/06/06 03:02:35;;;;;;;44.88;17.67;;;;;;;;;;5156003;27;20476;-75
2022/06/06 03:05:05;;;;;;;51.22;18.33;;;;;;;;;;5148144;27;20054;-75
2022/06/06 03:07:40;;;;;;;49.10;18.50;;;;;;;;;;5157372;27;20054;-75
2022/06/06 03:10:13;;;;;;;48.65;18.00;;;;;;;;;;5148423;27;21217;-74
2022/06/06 03:12:40;;;;;;;54.95;19.20;;;;;;;;;;5136450;27;20181;-72
2022/06/06 03:15:12;;;;;;;49.88;18.27;;;;;;;;;;5143843;27;20146;-74
2022/06/06 03:21:08;;;;;;;46.90;17.90;;;;;;;;;;5145873;27;20051;-74
2022/06/06 03:23:34;;;;;;;;;;;;;;;;;;5161850;27;20047;-74
2022/06/06 03:26:11;;;;;;;47.55;15.93;;;;;;;;;;5149786;27;44719;-74
2022/06/06 03:28:58;;;;;;;50.20;17.27;;;;;;;;;;5153545;27;20047;-73
2022/06/06 03:31:27;;;;;;;45.42;17.20;;;;;;;;;;5149051;27;20935;-75
2022/06/06 03:34:12;;;;;;;45.20;17.17;;;;;;;;;;5136211;27;20968;-74
2022/06/06 03:36:49;;;;;;;49.17;18.17;;;;;;;;;;5145165;27;20051;-74
2022/06/06 03:39:19;;;;;;;51.28;17.30;;;;;;;;;;5166036;27;20477;-73
2022/06/06 03:41:51;;;;;;;51.90;17.48;;;;;;;;;;5151436;27;20107;-74
2022/06/06 03:44:25;;;;;;;53.30;18.02;;;;;;;;;;5154200;27;20057;-74
2022/06/06 03:47:27;;;;;;;51.97;18.10;;;;;;;;;;5149452;27;20078;-74
2022/06/06 03:49:59;;;;;;;52.55;17.33;;;;;;;;;;5054217;28;20137;-74
2022/06/06 03:52:44;;;;;;;49.50;18.45;;;;;;;;;;5116169;27;20086;-74
2022/06/06 03:55:25;;;;;;;48.70;17.00;;;;;;;;;;5149088;27;20059;-74
2022/06/06 03:57:53;;;;;;;53.78;17.65;;;;;;;;;;5146619;27;20047;-74
2022/06/06 04:00:21;;;;;;;51.55;18.60;;;;;;;;;;5146940;27;20130;-75
2022/06/06 04:02:48;;;;;;;49.60;18.63;;;;;;;;;;5145615;27;20504;-74
2022/06/06 04:05:16;;;;;;;49.72;16.95;;;;;;;;;;5154932;27;20061;-75
2022/06/06 04:07:43;;;;;;;48.67;17.73;;;;;;;;;;5153329;27;20081;-73
2022/06/06 04:10:10;;;;;;;51.03;18.63;;;;;;;;;;5146475;27;20154;-74
2022/06/06 04:12:37;;;;;;;52.78;18.95;;;;;;;;;;5146193;27;20193;-74
2022/06/06 04:15:06;;;;;;;53.88;18.23;;;;;;;;;;5162358;27;20046;-72
2022/06/06 04:17:35;;;;;;;52.75;18.13;;;;;;;;;;5127411;27;20051;-74
2022/06/06 04:20:09;;;;;;;55.70;17.90;;;;;;;;;;5146209;27;20134;-74
2022/06/06 04:22:35;;;;;;;62.85;19.85;;;;;;;;;;5151773;27;20707;-73
2022/06/06 04:25:08;;;;;;;51.38;18.02;;;;;;;;;;5156314;27;20055;-73
2022/06/06 04:27:34;;;;;;;51.40;18.23;;;;;;;;;;5134142;27;20044;-74
2022/06/06 04:30:21;;;;;;;52.75;18.48;;;;;;;;;;5147264;27;20145;-74
2022/06/06 04:32:49;;;;;;;52.03;19.88;;;;;;;;;;5126770;27;20513;-73
2022/06/06 04:35:19;;;;;;;53.35;18.00;;;;;;;;;;5149503;27;20051;-74
2022/06/06 04:37:53;;;;;;;46.50;17.60;;;;;;;;;;5156437;27;20057;-75
2022/06/06 04:40:23;;;;;;;48.22;18.08;;;;;;;;;;5140030;27;20602;-75
2022/06/06 04:42:55;;;;;;;44.83;16.08;;;;;;;;;;5153948;27;20126;-75
2022/06/06 04:45:25;;;;;;;43.35;15.63;;;;;;;;;;5154824;27;20497;-75
2022/06/06 04:47:54;;;;;;;42.07;15.37;;;;;;;;;;5141939;27;20070;-74
2022/06/06 04:50:20;;;;;;;39.88;15.68;;;;;;;;;;5124182;27;20051;-75
2022/06/06 04:52:58;;;;;;;41.85;16.50;;;;;;;;;;5144030;27;20134;-75
2022/06/06 04:55:25;;;;;;;45.35;18.52;;;;;;;;;;5138227;27;20444;-75
2022/06/06 04:57:53;;;;;;;47.30;19.70;;;;;;;;;;5146205;27;20051;-74
2022/06/06 05:00:20;;;;;;;41.33;18.25;;;;;;;;;;5127931;27;20051;-73
2022/06/06 05:02:47;;;;;;;43.05;19.67;;;;;;;;;;5144019;27;20081;-76
2022/06/06 05:05:13;;;;;;;44.65;19.92;;;;;;;;;;5153374;27;20055;-75
2022/06/06 05:07:47;;;;;;;38.25;18.98;;;;;;;;;;5148582;27;20126;-75
2022/06/06 05:10:19;;;;;;;44.55;19.67;;;;;;;;;;5147377;27;20093;-76
2022/06/06 05:12:47;;;;;;;40.95;19.65;;;;;;;;;;5144377;27;20149;-74
2022/06/06 05:15:16;;;;;;;39.45;18.33;;;;;;;;;;5158862;27;20062;-74
2022/06/06 05:18:09;;;;;;;38.28;19.35;;;;;;;;;;5127349;27;20134;-75
2022/06/06 05:20:35;;;;;;;32.38;17.98;;;;;;;;;;5117881;27;20047;-73
2022/06/06 05:23:07;;;;;;;38.80;18.33;;;;;;;;;;5156171;27;20061;-75
2022/06/06 05:25:43;;;;;;;36.70;18.83;;;;;;;;;;5147789;27;20065;-75
2022/06/06 05:28:31;;;;;;;32.05;16.38;;;;;;;;;;5152693;27;20043;-75
2022/06/06 05:31:12;;;;;;;34.03;16.67;;;;;;;;;;5143257;27;20545;-75
2022/06/06 05:33:38;;;;;;;32.50;16.63;;;;;;;;;;5136219;27;20600;-75
2022/06/06 05:36:24;;;;;;;33.42;17.88;;;;;;;;;;5152077;27;20055;-75
2022/06/06 05:38:56;;;;;;;26.92;15.00;;;;;;;;;;5157564;27;20054;-75
2022/06/06 05:41:41;;;;;;;25.90;14.93;;;;;;;;;;5164891;27;20053;-75
2022/06/06 05:44:20;;;;;;;24.73;14.70;;;;;;;;;;5134867;27;20865;-73
2022/06/06 05:47:02;;;;;;;23.85;14.05;;;;;;;;;;5156308;27;20046;-75
2022/06/06 05:49:42;;;;;;;24.95;13.48;;;;;;;;;;5144028;27;20051;-73
2022/06/06 05:52:11;;;;;;;25.17;12.80;;;;;;;;;;5154268;27;20055;-75
2022/06/06 05:54:40;;;;;;;19.50;12.10;;;;;;;;;;5164088;27;20273;-74
2022/06/06 05:57:13;;;;;;;21.63;12.68;;;;;;;;;;5159482;27;20055;-74
2022/06/06 06:00:01;;;;;;;21.60;11.85;;;;;;;;;;5150619;27;20061;-75
2022/06/06 06:02:46;;;;;;;23.08;11.07;;;;;;;;;;5158021;27;20047;-74
2022/06/06 06:05:15;;;;;;;20.55;10.88;;;;;;;;;;5134782;27;20050;-73
2022/06/06 06:07:51;;;;;;;16.10;10.05;;;;;;;;;;5158303;27;20509;-75
2022/06/06 06:10:50;;;;;;;18.40;10.35;;;;;;;;;;5162036;27;20588;-74
2022/06/06 06:13:32;;;;;;;14.82;8.00;;;;;;;;;;5106386;27;20061;-75
2022/06/06 06:15:59;;;;;;;14.82;7.85;;;;;;;;;;5155428;27;20065;-75
2022/06/06 06:18:36;;;;;;;13.88;7.68;;;;;;;;;;5147420;27;20047;-74
2022/06/06 06:21:16;;;;;;;14.35;7.45;;;;;;;;;;5155909;27;20051;-73
2022/06/06 06:23:48;;;;;;;14.95;7.05;;;;;;;;;;5155562;27;20134;-75
2022/06/06 06:26:14;;;;;;;12.63;7.15;;;;;;;;;;5157812;27;20047;-74
2022/06/06 06:28:41;;;;;;;11.70;6.10;;;;;;;;;;5160501;27;20055;-74
2022/06/06 06:31:29;;;;;;;12.60;7.07;;;;;;;;;;5152098;27;20135;-74
2022/06/06 06:34:14;;;;;;;13.65;6.50;;;;;;;;;;5157430;27;20507;-74
2022/06/06 06:36:57;;;;;;;12.52;6.50;;;;;;;;;;5153422;27;20050;-74
2022/06/06 06:39:24;;;;;;;11.23;6.05;;;;;;;;;;5138845;27;20061;-75
2022/06/06 06:42:08;;;;;;;14.27;6.38;;;;;;;;;;5136754;27;20050;-75
2022/06/06 06:44:39;;;;;;;9.45;5.47;;;;;;;;;;5151572;27;20054;-74
2022/06/06 06:47:10;;;;;;;11.77;6.32;;;;;;;;;;5162882;27;21149;-75
2022/06/06 06:49:39;;;;;;;11.15;6.25;;;;;;;;;;5148752;27;20076;-76
2022/06/06 06:52:25;;;;;;;12.05;5.97;;;;;;;;;;5128909;27;20099;-73
2022/06/06 06:54:57;;;;;;;9.63;5.57;;;;;;;;;;5150465;27;20802;-72
2022/06/06 06:57:31;;;;;;;12.07;5.20;;;;;;;;;;5152581;27;20140;-73
2022/06/06 07:00:13;;;;;;;9.70;4.97;;;;;;;;;;5165318;27;20130;-73
2022/06/06 07:08:48;;;;;;;9.57;5.25;;;;;;;;;;5154615;27;20055;-73
2022/06/06 07:11:33;;;;;;;10.07;5.93;;;;;;;;;;5151033;27;20785;-73
2022/06/06 07:14:00;;;;;;;12.90;6.07;;;;;;;;;;5141194;27;20054;-73
2022/06/06 07:16:28;;;;;;;12.55;4.97;;;;;;;;;;5156788;27;20055;-73
2022/06/06 07:19:14;;;;;;;11.82;4.97;;;;;;;;;;5148948;27;20043;-74
2022/06/06 07:21:42;;;;;;;9.75;4.32;;;;;;;;;;5160895;27;20061;-73
2022/06/06 07:24:14;;;;;;;10.82;4.40;;;;;;;;;;5132342;27;20149;-73
2022/06/06 07:26:41;;;;;;;10.32;4.43;;;;;;;;;;5154313;27;20047;-74
2022/06/06 07:29:10;;;;;;;8.30;4.90;;;;;;;;;;5140123;27;20053;-74
2022/06/06 07:31:39;;;;;;;8.75;4.90;;;;;;;;;;5160771;27;20054;-74
2022/06/06 07:34:09;;;;;;;9.23;4.38;;;;;;;;;;5145180;27;20599;-74
2022/06/06 07:36:54;;;;;;;8.52;3.80;;;;;;;;;;5137998;27;20055;-75
2022/06/06 07:39:41;;;;;;;11.25;3.90;;;;;;;;;;5153362;27;20051;-73
2022/06/06 07:42:27;;;;;;;8.93;3.45;;;;;;;;;;5124325;27;20146;-74
2022/06/06 07:45:07;;;;;;;6.82;3.72;;;;;;;;;;5135712;27;20082;-74
2022/06/06 07:47:55;;;;;;;7.93;3.70;;;;;;;;;;5148340;27;20079;-74
2022/06/06 07:50:24;;;;;;;8.35;3.65;;;;;;;;;;5155876;27;20141;-74
2022/06/06 07:53:09;;;;;;;10.05;4.72;;;;;;;;;;5137645;27;20047;-74
2022/06/06 07:55:48;;;;;;;8.88;4.03;;;;;;;;;;5160286;27;20129;-75
2022/06/06 07:58:26;;;;;;;6.60;3.42;;;;;;;;;;5158035;27;20100;-75
2022/06/06 08:01:02;;;;;;;6.70;3.30;;;;;;;;;;5146151;27;20057;-74
2022/06/06 08:03:47;;;;;;;7.35;3.72;;;;;;;;;;5132465;27;20047;-75
2022/06/06 08:06:20;;;;;;;7.95;3.53;;;;;;;;;;5150167;27;20145;-74
2022/06/06 08:09:02;;;;;;;8.55;3.45;;;;;;;;;;5146481;27;20552;-74
2022/06/06 08:11:29;;;;;;;5.85;3.00;;;;;;;;;;5137486;27;20047;-74
2022/06/06 08:14:14;;;;;;;7.03;3.08;;;;;;;;;;5156933;27;20057;-74
2022/06/06 08:16:50;;;;;;;8.52;3.70;;;;;;;;;;5138603;27;20047;-74
2022/06/06 08:19:30;;;;;;;7.38;3.00;;;;;;;;;;5147540;27;20146;-74
2022/06/06 08:21:58;;;;;;;9.50;3.10;;;;;;;;;;5155308;27;20149;-73
2022/06/06 08:24:29;;;;;;;9.15;3.30;;;;;;;;;;5139318;27;20050;-74
2022/06/06 08:27:17;;;;;;;7.63;2.92;;;;;;;;;;5134170;27;20050;-75
2022/06/06 08:29:44;;;;;;;6.80;2.65;;;;;;;;;;5133589;27;20138;-75
2022/06/06 08:32:11;;;;;;;5.65;2.90;;;;;;;;;;5156055;27;20051;-75
2022/06/06 08:34:37;;;;;;;7.78;2.63;;;;;;;;;;5164031;27;20058;-75
2022/06/06 08:37:07;;;;;;;5.03;2.53;;;;;;;;;;5140294;27;20061;-75
2022/06/06 08:39:34;;;;;;;;;;;;;;;;;;5159099;27;20046;-74
2022/06/06 08:42:12;;;;;;;5.90;2.85;;;;;;;;;;5136767;27;47516;-74
2022/06/06 08:44:53;;;;;;;6.20;2.28;;;;;;;;;;5129444;27;20138;-74
2022/06/06 08:47:34;;;;;;;6.85;2.30;;;;;;;;;;5150971;27;20789;-74
2022/06/06 08:53:04;;;;;;;6.13;2.00;;;;;;;;;;5146793;27;20050;-75
2022/06/06 08:55:38;;;;;;;3.80;2.28;;;;;;;;;;5126446;27;20177;-74
2022/06/06 08:58:11;;;;;;;5.80;2.15;;;;;;;;;;5127452;27;20055;-75
2022/06/06 09:00:47;;;;;;;7.63;2.30;;;;;;;;;;5155312;27;20042;-74
2022/06/06 09:03:16;;;;;;;8.45;2.70;;;;;;;;;;5130188;27;20436;-74
2022/06/06 09:05:49;;;;;;;6.63;2.10;;;;;;;;;;5143360;27;22585;-75
2022/06/06 09:08:30;;;;;;;9.45;2.50;;;;;;;;;;5149787;27;20528;-74
2022/06/06 09:10:56;;;;;;;5.35;2.33;;;;;;;;;;5163040;27;20050;-74
2022/06/06 09:13:42;;;;;;;4.32;1.88;;;;;;;;;;5160967;27;20276;-74
2022/06/06 09:16:28;;;;;;;5.10;1.90;;;;;;;;;;5147531;27;20148;-74
2022/06/06 09:19:00;;;;;;;6.90;1.52;;;;;;;;;;5151915;27;20057;-74
2022/06/06 09:21:45;;;;;;;5.28;1.80;;;;;;;;;;5165798;27;20058;-74
2022/06/06 09:24:31;;;;;;;4.78;1.58;;;;;;;;;;5157162;27;20054;-75
2022/06/06 09:27:08;;;;;;;3.45;1.63;;;;;;;;;;5125624;27;20043;-75
2022/06/06 09:29:44;;;;;;;4.38;1.70;;;;;;;;;;5147713;27;20537;-75
2022/06/06 09:32:29;;;;;;;5.43;1.60;;;;;;;;;;5152668;27;20054;-75
2022/06/06 09:34:58;;;;;;;4.78;1.52;;;;;;;;;;5137313;27;20050;-75
2022/06/06 09:37:26;;;;;;;5.65;1.70;;;;;;;;;;5151121;27;20055;-75
2022/06/06 09:40:11;;;;;;;6.05;1.90;;;;;;;;;;5150428;27;20046;-75
2022/06/06 09:42:50;;;;;;;5.28;1.83;;;;;;;;;;5134284;27;20051;-75
2022/06/06 09:45:20;;;;;;;6.50;1.58;;;;;;;;;;5124680;27;20050;-75
2022/06/06 09:47:55;;;;;;;5.65;1.45;;;;;;;;;;5145775;27;20061;-75
2022/06/06 09:50:38;;;;;;;4.10;1.48;;;;;;;;;;5146884;27;20501;-74
2022/06/06 09:53:07;;;;;;;3.55;1.00;;;;;;;;;;5158207;27;20137;-75
2022/06/06 09:59:07;;;;;;;3.65;1.38;;;;;;;;;;5153006;27;20047;-75
2022/06/06 10:01:51;;;;;;;8.90;1.40;;;;;;;;;;5149369;27;20137;-74
2022/06/06 10:04:27;;;;;;;4.50;1.33;;;;;;;;;;5145873;27;20107;-74
2022/06/06 10:07:11;;;;;;;5.68;1.45;;;;;;;;;;5137889;27;20504;-74
2022/06/06 10:09:50;;;;;;;6.63;1.58;;;;;;;;;;5166105;27;20137;-74
2022/06/06 10:12:29;;;;;;;6.00;1.40;;;;;;;;;;5143656;27;20055;-74
2022/06/06 10:14:59;;;;;;;6.03;1.23;;;;;;;;;;5158401;27;20050;-74
2022/06/06 10:17:25;;;;;;;4.40;1.35;;;;;;;;;;5147325;27;20053;-74
2022/06/06 10:19:57;;;;;;;6.93;1.77;;;;;;;;;;5156801;27;20062;-74
2022/06/06 10:22:49;;;;;;;3.17;1.20;;;;;;;;;;5154817;27;20059;-76
2022/06/06 10:25:34;;;;;;;5.50;1.40;;;;;;;;;;5133722;27;20055;-74
2022/06/06 10:28:06;;;;;;;10.20;1.50;;;;;;;;;;5149502;27;20186;-75
2022/06/06 10:30:41;;;;;;;5.90;1.80;;;;;;;;;;5126364;27;20142;-75
2022/06/06 10:33:13;;;;;;;4.90;1.50;;;;;;;;;;5152847;27;20044;-75
2022/06/06 10:35:52;;;;;;;4.35;1.50;;;;;;;;;;5127908;27;20268;-75
2022/06/06 10:38:37;;;;;;;3.28;1.17;;;;;;;;;;5147920;27;20582;-75
2022/06/06 10:41:04;;;;;;;4.22;1.30;;;;;;;;;;5155833;27;20137;-75
2022/06/06 10:43:46;;;;;;;3.65;1.55;;;;;;;;;;5141804;27;20058;-75
2022/06/06 10:46:13;;;;;;;4.10;1.30;;;;;;;;;;5162710;27;20055;-75
2022/06/06 10:48:58;;;;;;;4.63;1.20;;;;;;;;;;5147851;27;20511;-74
2022/06/06 10:51:45;;;;;;;4.22;1.38;;;;;;;;;;5147302;27;20149;-75
2022/06/06 10:54:30;;;;;;;5.13;1.50;;;;;;;;;;5157786;27;20051;-75
2022/06/06 10:56:56;;;;;;;3.25;1.42;;;;;;;;;;5158857;27;20051;-75
2022/06/06 10:59:41;;;;;;;4.68;1.42;;;;;;;;;;5150141;27;20126;-75
2022/06/06 11:02:10;;;;;;;3.78;1.40;;;;;;;;;;5162039;27;20051;-75
2022/06/06 11:04:49;;;;;;;3.92;1.65;;;;;;;;;;5155150;27;20078;-75
2022/06/06 11:07:33;;;;;;;4.75;1.40;;;;;;;;;;5140784;27;20146;-75
2022/06/06 11:10:14;;;;;;;5.60;1.88;;;;;;;;;;5136144;27;20054;-75
2022/06/06 11:13:00;;;;;;;5.65;1.50;;;;;;;;;;5157340;27;21142;-75
2022/06/06 11:15:33;;;;;;;10.13;2.80;;;;;;;;;;5160895;27;20582;-73
2022/06/06 11:18:10;;;;;;;3.65;1.30;;;;;;;;;;5135635;27;20057;-73
2022/06/06 11:20:55;;;;;;;4.03;1.75;;;;;;;;;;5164304;27;20065;-72
2022/06/06 11:23:56;;;;;;;6.95;2.35;;;;;;;;;;5147158;27;20171;-73
2022/06/06 11:26:32;;;;;;;4.80;1.80;;;;;;;;;;5135424;27;20193;-73
2022/06/06 11:29:01;;;;;;;5.45;2.00;;;;;;;;;;5148424;27;20139;-74
2022/06/06 11:31:37;;;;;;;4.93;2.15;;;;;;;;;;5163082;27;20529;-74
2022/06/06 11:34:23;;;;;;;5.63;2.20;;;;;;;;;;5153818;27;20059;-74
2022/06/06 11:37:08;;;;;;;6.50;2.10;;;;;;;;;;5149395;27;20234;-73
2022/06/06 11:39:34;;;;;;;7.88;2.22;;;;;;;;;;5160874;27;20495;-74
2022/06/06 11:42:00;;;;;;;5.63;2.55;;;;;;;;;;5126645;27;20055;-73
2022/06/06 11:44:42;;;;;;;5.93;2.42;;;;;;;;;;5164398;27;20042;-73
2022/06/06 11:47:27;;;;;;;6.93;2.60;;;;;;;;;;5159738;27;20050;-74
2022/06/06 11:49:54;;;;;;;6.93;2.53;;;;;;;;;;5159866;27;20053;-74
2022/06/06 11:52:40;;;;;;;6.45;2.28;;;;;;;;;;5138993;27;20122;-74
2022/06/06 11:55:17;;;;;;;6.13;2.28;;;;;;;;;;5104139;27;20526;-74
2022/06/06 11:57:43;;;;;;;5.47;2.08;;;;;;;;;;5151896;27;20047;-75
2022/06/06 12:00:13;;;;;;;6.25;2.38;;;;;;;;;;5155238;27;20043;-74
2022/06/06 12:02:58;;;;;;;5.10;2.03;;;;;;;;;;5151789;27;20051;-74
2022/06/06 12:05:43;;;;;;;4.20;2.25;;;;;;;;;;5151056;27;20051;-74
2022/06/06 12:08:09;;;;;;;7.30;2.25;;;;;;;;;;5154622;27;20046;-74
2022/06/06 12:10:38;;;;;;;4.55;2.50;;;;;;;;;;5155344;27;20069;-74
2022/06/06 12:13:18;;;;;;;11.55;3.13;;;;;;;;;;5156953;27;20070;-74
2022/06/06 12:15:54;;;;;;;5.57;2.92;;;;;;;;;;5156702;27;20057;-74
2022/06/06 12:18:33;;;;;;;5.93;2.60;;;;;;;;;;5152802;27;20077;-74
2022/06/06 12:21:08;;;;;;;7.63;3.40;;;;;;;;;;5153518;27;20084;-73
2022/06/06 12:23:48;;;;;;;9.95;4.03;;;;;;;;;;5145180;27;20055;-73
2022/06/06 12:26:28;;;;;;;7.47;3.30;;;;;;;;;;5150259;27;20051;-74
2022/06/06 12:29:03;;;;;;;6.97;2.78;;;;;;;;;;5150063;27;20410;-74
2022/06/06 12:31:41;;;;;;;5.57;3.28;;;;;;;;;;5146125;27;20053;-74
2022/06/06 12:34:25;;;;;;;6.53;2.78;;;;;;;;;;5156127;27;20046;-73
2022/06/06 12:36:56;;;;;;;7.88;2.65;;;;;;;;;;5154737;27;20862;-74
2022/06/06 12:39:29;;;;;;;5.18;2.78;;;;;;;;;;5148934;27;20059;-73
2022/06/06 12:42:08;;;;;;;6.72;2.95;;;;;;;;;;5124960;27;20046;-74
2022/06/06 12:44:46;;;;;;;5.43;3.10;;;;;;;;;;5156949;27;20057;-74
2022/06/06 12:47:22;;;;;;;5.15;2.70;;;;;;;;;;5134904;27;20082;-73
2022/06/06 12:50:03;;;;;;;7.53;2.97;;;;;;;;;;5126183;27;20051;-74
2022/06/06 12:52:36;;;;;;;4.57;2.10;;;;;;;;;;5160467;27;20047;-73
2022/06/06 12:55:34;;;;;;;4.97;2.80;;;;;;;;;;5142619;27;20577;-74
2022/06/06 12:58:15;;;;;;;5.07;2.75;;;;;;;;;;5147966;27;20166;-73
2022/06/06 13:03:50;;;;;;;5.45;2.70;;;;;;;;;;5149558;27;20061;-74
2022/06/06 13:06:23;;;;;;;6.25;3.08;;;;;;;;;;5140607;27;20897;-73
2022/06/06 13:09:08;;;;;;;6.00;2.88;;;;;;;;;;5121004;27;20145;-73
2022/06/06 13:11:43;;;;;;;7.18;3.28;;;;;;;;;;5140041;27;20050;-73
2022/06/06 13:14:13;;;;;;;9.35;3.67;;;;;;;;;;5150186;27;20058;-72
2022/06/06 13:16:42;;;;;;;8.40;3.80;;;;;;;;;;5145575;27;20039;-72
2022/06/06 13:19:25;;;;;;;7.85;3.60;;;;;;;;;;5152618;27;20150;-72
2022/06/06 13:21:52;;;;;;;8.05;3.38;;;;;;;;;;5144455;27;20078;-72
2022/06/06 13:24:36;;;;;;;9.43;3.88;;;;;;;;;;5150894;27;20060;-72
2022/06/06 13:27:15;;;;;;;10.20;4.03;;;;;;;;;;5158663;27;20074;-72
2022/06/06 13:29:42;;;;;;;7.93;4.10;;;;;;;;;;5165219;27;20141;-72
2022/06/06 13:32:13;;;;;;;9.45;4.50;;;;;;;;;;5152597;27;22044;-72
2022/06/06 13:34:59;;;;;;;10.73;4.47;;;;;;;;;;5146164;27;20501;-72
2022/06/06 13:37:43;;;;;;;9.00;4.20;;;;;;;;;;5143084;27;20120;-72
2022/06/06 13:40:19;;;;;;;9.95;4.65;;;;;;;;;;5156016;27;20146;-72
2022/06/06 13:42:59;;;;;;;11.95;4.28;;;;;;;;;;5152294;27;20077;-74
2022/06/06 13:45:41;;;;;;;8.97;4.33;;;;;;;;;;5150697;27;20483;-74
2022/06/06 13:48:17;;;;;;;10.30;4.65;;;;;;;;;;5146822;27;20280;-74
2022/06/06 13:50:56;;;;;;;9.98;4.82;;;;;;;;;;5146050;27;20051;-75
2022/06/06 13:53:41;;;;;;;10.10;4.72;;;;;;;;;;5138262;27;20191;-72
2022/06/06 13:56:27;;;;;;;17.40;4.80;;;;;;;;;;5142412;27;20061;-73
2022/06/06 13:58:59;;;;;;;5.63;3.10;;;;;;;;;;5143033;27;20047;-74
2022/06/06 14:01:26;;;;;;;6.47;2.47;;;;;;;;;;5158713;27;20051;-74
2022/06/06 14:04:11;;;;;;;5.28;2.38;;;;;;;;;;5155037;27;20065;-74
2022/06/06 14:06:38;;;;;;;4.32;1.95;;;;;;;;;;5144742;27;20054;-73
2022/06/06 14:09:04;;;;;;;3.60;1.40;;;;;;;;;;5149267;27;20053;-73
2022/06/06 14:11:54;;;;;;;3.13;1.38;;;;;;;;;;5146833;27;20102;-74
2022/06/06 14:14:21;;;;;;;3.15;1.48;;;;;;;;;;5115398;27;20138;-73
2022/06/06 14:17:09;;;;;;;4.68;1.40;;;;;;;;;;5131130;27;20801;-73
2022/06/06 14:19:51;;;;;;;3.40;1.50;;;;;;;;;;5153523;27;20054;-73
2022/06/06 14:22:26;;;;;;;4.05;1.63;;;;;;;;;;5148191;27;20096;-73
2022/06/06 14:24:54;;;;;;;4.05;1.45;;;;;;;;;;5155672;27;20055;-73
2022/06/06 14:27:22;;;;;;;5.03;1.40;;;;;;;;;;5149402;27;20429;-73
2022/06/06 14:29:51;;;;;;;2.65;0.95;;;;;;;;;;5143172;27;20179;-73
2022/06/06 14:32:17;;;;;;;3.38;1.10;;;;;;;;;;5154132;27;20137;-72
2022/06/06 14:34:45;;;;;;;3.47;1.10;;;;;;;;;;5152949;27;20051;-72
2022/06/06 14:37:24;;;;;;;2.90;1.00;;;;;;;;;;5152640;27;20512;-73
2022/06/06 14:39:51;;;;;;;5.00;1.08;;;;;;;;;;5156493;27;20047;-73
2022/06/06 14:42:38;;;;;;;2.60;0.90;;;;;;;;;;5153928;27;20055;-73
2022/06/06 14:45:13;;;;;;;2.72;0.80;;;;;;;;;;5153107;27;20050;-72
2022/06/06 14:47:49;;;;;;;2.80;0.80;;;;;;;;;;5153406;27;20039;-74
2022/06/06 14:53:17;;;;;;;4.82;1.15;;;;;;;;;;5149631;27;20512;-74
2022/06/06 14:55:47;;;;;;;5.18;1.20;;;;;;;;;;5146233;27;20061;-74
2022/06/06 14:58:17;;;;;;;4.13;1.58;;;;;;;;;;5146131;27;20057;-74
2022/06/06 15:00:54;;;;;;;3.43;1.40;;;;;;;;;;5153885;27;20079;-74
2022/06/06 15:03:32;;;;;;;5.40;1.30;;;;;;;;;;5161907;27;20054;-74
2022/06/06 15:06:24;;;;;;;4.93;1.58;;;;;;;;;;5145882;27;20054;-75
2022/06/06 15:09:04;;;;;;;4.80;1.35;;;;;;;;;;5158294;27;20078;-75
2022/06/06 15:11:32;;;;;;;2.40;1.05;;;;;;;;;;5145694;27;20642;-74
2022/06/06 15:13:59;;;;;;;3.42;1.30;;;;;;;;;;5146140;27;20145;-74
2022/06/06 15:16:27;;;;;;;2.83;1.23;;;;;;;;;;5147366;27;20560;-74
2022/06/06 15:18:55;;;;;;;3.25;1.45;;;;;;;;;;5145016;27;20702;-74
2022/06/06 15:21:24;;;;;;;5.03;1.77;;;;;;;;;;5144032;27;20609;-74
2022/06/06 15:23:55;;;;;;;5.57;1.67;;;;;;;;;;5145781;27;20138;-74
2022/06/06 15:26:31;;;;;;;5.95;2.00;;;;;;;;;;5146077;27;20055;-74
2022/06/06 15:29:06;;;;;;;4.95;1.90;;;;;;;;;;5143018;27;20547;-74
2022/06/06 15:31:49;;;;;;;5.43;2.03;;;;;;;;;;5156420;27;20051;-74
2022/06/06 15:34:38;;;;;;;5.63;1.92;;;;;;;;;;5151670;27;20058;-73
2022/06/06 15:37:08;;;;;;;5.50;1.92;;;;;;;;;;5099925;27;20141;-74